TimeEST,TemperatureF,Dew PointF,Humidity,Sea Level PressureIn,VisibilityMPH,Wind Direction,Wind SpeedMPH,Gust SpeedMPH,PrecipitationIn,Events,Conditions,WindDirDegrees,DateUTC
12:53 AM,21.0,19.0,92,30.31,10.0,SSE,5.8,-,N/A,,Clear,150,2013-02-10 05:53:00
1:53 AM,21.0,19.0,92,30.30,10.0,SE,5.8,-,N/A,,Clear,140,2013-02-10 06:53:00
2:53 AM,19.9,18.0,92,30.30,10.0,ESE,4.6,-,N/A,,Clear,120,2013-02-10 07:53:00
3:53 AM,19.9,18.0,92,30.28,10.0,ESE,4.6,-,N/A,,Clear,120,2013-02-10 08:53:00
4:53 AM,19.9,18.0,92,30.25,9.0,Calm,Calm,-,N/A,,Clear,0,2013-02-10 09:53:00
5:53 AM,19.0,18.0,96,30.26,8.0,SE,3.5,-,N/A,,Clear,130,2013-02-10 10:53:00
6:53 AM,23.0,19.0,85,30.25,10.0,Calm,Calm,-,N/A,,Clear,0,2013-02-10 11:53:00
7:53 AM,21.9,18.0,85,30.25,9.0,ESE,3.5,-,N/A,,Clear,110,2013-02-10 12:53:00
8:53 AM,25.0,19.9,81,30.18,10.0,East,8.1,-,N/A,,Clear,90,2013-02-10 13:53:00
9:53 AM,28.0,21.0,75,30.18,10.0,ESE,11.5,-,N/A,,Overcast,120,2013-02-10 14:53:00
10:53 AM,30.9,21.9,69,30.17,10.0,SE,9.2,-,N/A,,Overcast,140,2013-02-10 15:53:00
11:53 AM,33.1,23.0,66,30.15,10.0,SE,8.1,-,N/A,,Overcast,140,2013-02-10 16:53:00
12:53 PM,34.0,24.1,67,30.09,10.0,ESE,6.9,-,N/A,,Mostly Cloudy,120,2013-02-10 17:53:00
1:53 PM,35.1,25.0,67,30.06,10.0,SE,8.1,-,N/A,,Scattered Clouds,130,2013-02-10 18:53:00
2:53 PM,36.0,25.0,64,30.03,10.0,ESE,6.9,-,N/A,,Overcast,110,2013-02-10 19:53:00
3:53 PM,35.1,26.1,70,29.98,10.0,East,9.2,-,N/A,,Overcast,90,2013-02-10 20:53:00
4:53 PM,34.0,27.0,75,29.98,10.0,ESE,8.1,-,N/A,,Overcast,120,2013-02-10 21:53:00
5:53 PM,35.1,28.0,76,29.93,10.0,ESE,6.9,-,N/A,,Overcast,120,2013-02-10 22:53:00
6:53 PM,36.0,28.0,73,29.91,10.0,SE,6.9,-,N/A,,Overcast,140,2013-02-10 23:53:00
7:53 PM,36.0,30.0,79,29.88,10.0,ESE,5.8,-,0.00,,Overcast,120,2013-02-11 00:53:00
8:53 PM,37.0,30.9,79,29.84,10.0,SSE,4.6,-,0.01,Rain,Light Rain,160,2013-02-11 01:53:00
9:53 PM,39.0,32.0,76,29.79,9.0,SSE,12.7,-,0.01,Rain,Light Rain,150,2013-02-11 02:53:00
10:53 PM,39.0,32.0,76,29.76,9.0,SSE,8.1,-,0.03,Rain,Light Rain,160,2013-02-11 03:53:00
11:53 PM,39.0,32.0,76,29.73,10.0,SSE,6.9,-,0.01,,Overcast,160,2013-02-11 04:53:00